createdAt,value
2022-12-22T00:00:02.454Z,20.90
2022-12-22T00:05:00.901Z,17.80
2022-12-22T00:10:00.524Z,17.60
2022-12-22T00:15:00.611Z,20.50
2022-12-22T00:20:00.664Z,23.00
2022-12-22T00:25:00.528Z,23.60
2022-12-22T00:30:01.947Z,22.60
2022-12-22T00:35:00.629Z,22.90
2022-12-22T00:40:00.982Z,25.80
2022-12-22T00:45:00.622Z,26.70
2022-12-22T00:50:00.565Z,23.10
2022-12-22T00:55:00.759Z,21.40
2022-12-22T01:00:01.713Z,15.50
2022-12-22T01:05:00.633Z,18.10
2022-12-22T01:10:00.660Z,17.20
2022-12-22T01:15:00.590Z,18.60
2022-12-22T01:20:00.735Z,17.20
2022-12-22T01:25:00.587Z,19.20
2022-12-22T01:30:00.869Z,17.60
2022-12-22T01:35:00.658Z,21.40
2022-12-22T01:40:00.573Z,22.20
2022-12-22T01:45:20.525Z,22.80
2022-12-22T01:50:00.571Z,22.90
2022-12-22T01:55:06.591Z,22.70
2022-12-22T02:00:01.034Z,22.00
2022-12-22T02:05:03.706Z,25.00
2022-12-22T02:10:20.430Z,25.90
2022-12-22T02:15:14.875Z,26.10
2022-12-22T02:20:13.803Z,25.30
2022-12-22T02:25:09.369Z,27.10
2022-12-22T02:30:04.844Z,26.40
2022-12-22T02:35:00.666Z,27.00
2022-12-22T02:40:13.200Z,25.40
2022-12-22T02:45:13.736Z,29.70
2022-12-22T02:50:13.454Z,26.50
2022-12-22T02:55:01.498Z,29.10
2022-12-22T03:00:03.005Z,28.50
2022-12-22T03:05:00.529Z,39.60
2022-12-22T03:10:00.538Z,36.50
2022-12-22T03:15:00.515Z,36.50
2022-12-22T03:20:00.558Z,47.60
2022-12-22T03:25:00.616Z,40.50
2022-12-22T03:30:00.582Z,32.40
2022-12-22T03:35:00.509Z,35.10
2022-12-22T03:40:00.573Z,36.20
2022-12-22T03:45:00.560Z,35.50
2022-12-22T03:50:00.509Z,37.00
2022-12-22T03:55:00.624Z,38.20
2022-12-22T04:00:02.381Z,34.00
2022-12-22T04:05:00.539Z,37.90
2022-12-22T04:10:00.569Z,30.70
2022-12-22T04:15:00.518Z,38.10
2022-12-22T04:20:00.597Z,46.80
2022-12-22T04:25:00.546Z,56.20
2022-12-22T04:30:00.517Z,49.90
2022-12-22T04:35:00.677Z,63.40
2022-12-22T04:40:00.652Z,87.50
2022-12-22T04:45:00.576Z,82.10
2022-12-22T04:50:00.581Z,85.30
2022-12-22T04:55:00.559Z,118.70
2022-12-22T05:00:01.816Z,155.40
2022-12-22T05:05:00.649Z,132.20
2022-12-22T05:10:00.592Z,87.10
2022-12-22T05:15:00.551Z,103.50
2022-12-22T05:20:00.594Z,65.50
2022-12-22T05:25:00.538Z,69.40
2022-12-22T05:30:00.833Z,92.30
2022-12-22T05:35:01.582Z,60.30
2022-12-22T05:40:01.016Z,49.40
2022-12-22T05:45:12.831Z,37.50
2022-12-22T05:50:00.730Z,41.80
2022-12-22T05:55:00.531Z,50.90
2022-12-22T06:00:06.162Z,44.30
2022-12-22T06:05:00.695Z,36.20
2022-12-22T06:10:02.723Z,54.20
2022-12-22T06:15:00.580Z,47.90
2022-12-22T06:20:00.763Z,44.40
2022-12-22T06:25:00.571Z,51.40
2022-12-22T06:30:00.615Z,50.50
2022-12-22T06:35:00.585Z,48.80
2022-12-22T06:40:00.696Z,57.80
2022-12-22T06:45:00.529Z,51.10
2022-12-22T06:50:00.522Z,52.20
2022-12-22T06:55:00.573Z,46.20
2022-12-22T07:00:03.003Z,42.80
2022-12-22T07:05:00.507Z,53.20
2022-12-22T07:10:00.731Z,53.50
2022-12-22T07:15:00.615Z,65.20
2022-12-22T07:20:00.605Z,64.10
2022-12-22T07:25:00.536Z,68.00
2022-12-22T07:30:00.513Z,57.40
2022-12-22T07:35:05.193Z,44.60
2022-12-22T07:40:00.623Z,43.20
2022-12-22T07:45:00.515Z,36.60
2022-12-22T07:50:00.590Z,45.10
2022-12-22T07:55:00.651Z,46.70
2022-12-22T08:00:03.004Z,44.80
2022-12-22T08:05:00.594Z,44.10
2022-12-22T08:10:00.707Z,43.10
2022-12-22T08:15:00.519Z,30.80
2022-12-22T08:20:01.094Z,39.80
2022-12-22T08:25:00.575Z,40.50
2022-12-22T08:30:01.261Z,35.30
2022-12-22T08:35:00.574Z,29.50
2022-12-22T08:40:05.380Z,29.60
2022-12-22T08:45:00.606Z,30.40
2022-12-22T08:50:00.639Z,34.40
2022-12-22T08:55:00.588Z,27.20
2022-12-22T09:00:01.165Z,25.40
2022-12-22T09:05:00.572Z,28.50
2022-12-22T09:10:00.651Z,24.60
2022-12-22T09:15:00.569Z,27.30
2022-12-22T09:20:01.577Z,27.90
2022-12-22T09:25:00.605Z,31.40
2022-12-22T09:30:00.558Z,29.80
2022-12-22T09:35:00.517Z,32.50
2022-12-22T09:40:00.582Z,29.40
2022-12-22T09:45:00.647Z,30.00
2022-12-22T09:50:01.613Z,39.50
2022-12-22T09:55:02.265Z,33.00
2022-12-22T10:00:06.417Z,34.60
2022-12-22T10:05:17.500Z,38.70
2022-12-22T10:10:11.703Z,44.60
2022-12-22T10:15:00.564Z,64.50
2022-12-22T10:20:09.218Z,40.70
2022-12-22T10:25:02.092Z,38.40
2022-12-22T10:30:20.440Z,39.00
2022-12-22T10:35:05.276Z,36.80
2022-12-22T10:40:13.839Z,35.20
2022-12-22T10:45:00.632Z,25.10
2022-12-22T10:55:20.501Z,20.80
2022-12-22T11:00:11.943Z,18.90
2022-12-22T11:05:04.084Z,20.20
2022-12-22T11:10:00.734Z,16.90
2022-12-22T11:15:24.204Z,18.10
2022-12-22T11:20:20.426Z,16.90
2022-12-22T11:25:20.543Z,11.00
2022-12-22T11:30:04.258Z,15.50
2022-12-22T11:35:01.541Z,14.10
2022-12-22T11:40:17.950Z,12.90
2022-12-22T11:45:04.781Z,12.00
2022-12-22T11:50:57.787Z,15.40
2022-12-22T11:55:13.309Z,13.40
2022-12-22T12:00:07.234Z,15.50
2022-12-22T12:05:11.511Z,15.20
2022-12-22T12:10:13.884Z,15.90
2022-12-22T12:15:20.473Z,13.00
2022-12-22T12:20:20.437Z,15.70
2022-12-22T12:25:22.353Z,14.70
2022-12-22T12:30:36.845Z,17.20
2022-12-22T12:35:16.635Z,17.00
2022-12-22T12:40:20.421Z,15.20
2022-12-22T12:45:00.786Z,16.90
2022-12-22T12:50:20.432Z,17.30
2022-12-22T12:55:22.299Z,17.60
2022-12-22T13:00:02.891Z,19.70
2022-12-22T13:05:08.050Z,24.60
2022-12-22T13:10:19.368Z,19.10
2022-12-22T13:15:00.554Z,21.90
2022-12-22T13:20:01.763Z,22.80
2022-12-22T13:25:02.298Z,23.60
2022-12-22T13:30:00.797Z,24.40
2022-12-22T13:35:33.732Z,24.10
2022-12-22T13:40:19.384Z,24.90
2022-12-22T13:45:00.975Z,24.00
2022-12-22T13:50:08.879Z,26.30
2022-12-22T13:55:00.613Z,27.40
2022-12-22T14:00:01.499Z,28.30
2022-12-22T14:05:07.993Z,28.60
2022-12-22T14:10:00.811Z,26.70
2022-12-22T14:15:01.387Z,26.60
2022-12-22T14:20:18.579Z,25.80
2022-12-22T14:25:06.373Z,25.90
2022-12-22T14:30:05.482Z,25.00
2022-12-22T14:35:00.821Z,23.90
2022-12-22T14:40:00.512Z,25.90
2022-12-22T14:45:00.654Z,25.70
2022-12-22T14:50:19.308Z,29.90
2022-12-22T14:55:03.587Z,31.80
2022-12-22T15:00:07.084Z,31.80
2022-12-22T15:05:13.256Z,30.00
2022-12-22T15:10:16.626Z,32.10
2022-12-22T15:15:01.441Z,31.70
2022-12-22T15:20:00.625Z,31.70
2022-12-22T15:25:00.617Z,34.30
2022-12-22T15:30:00.536Z,28.00
2022-12-22T15:35:01.400Z,34.40
2022-12-22T15:40:00.567Z,30.00
2022-12-22T15:45:00.567Z,29.30
2022-12-22T15:50:00.814Z,27.10
2022-12-22T15:55:00.636Z,30.30
2022-12-22T16:00:00.970Z,27.80
2022-12-22T16:05:00.514Z,26.10
2022-12-22T16:10:01.474Z,26.40
2022-12-22T16:15:00.714Z,27.40
2022-12-22T16:20:00.581Z,23.40
2022-12-22T16:25:04.489Z,24.20
2022-12-22T16:30:00.556Z,23.10
2022-12-22T16:35:07.825Z,23.80
2022-12-22T16:40:00.702Z,26.40
2022-12-22T16:45:02.594Z,24.80
2022-12-22T16:50:00.829Z,24.80
2022-12-22T16:55:00.541Z,22.50
2022-12-22T17:00:01.450Z,22.60
2022-12-22T17:05:01.617Z,19.60
2022-12-22T17:10:01.449Z,22.20
2022-12-22T17:15:00.761Z,21.00
2022-12-22T17:20:00.517Z,20.60
2022-12-22T17:25:03.463Z,19.40
2022-12-22T17:30:01.790Z,15.70
2022-12-22T17:35:00.592Z,17.70
2022-12-22T17:40:01.033Z,18.70
2022-12-22T17:45:00.670Z,21.50
2022-12-22T17:50:00.543Z,18.70
2022-12-22T17:55:00.563Z,18.90
2022-12-22T18:00:01.667Z,19.10
2022-12-22T18:05:00.560Z,22.80
2022-12-22T18:10:00.834Z,22.70
2022-12-22T18:15:00.536Z,22.70
2022-12-22T18:20:00.506Z,22.50
2022-12-22T18:25:00.595Z,25.30
2022-12-22T18:30:00.522Z,23.60
2022-12-22T18:35:00.644Z,22.30
2022-12-22T18:40:00.952Z,22.00
2022-12-22T18:45:00.541Z,21.90
2022-12-22T18:50:00.592Z,26.90
2022-12-22T18:55:00.558Z,23.10
2022-12-22T19:00:01.444Z,24.10
2022-12-22T19:05:01.552Z,22.90
2022-12-22T19:10:01.797Z,23.10
2022-12-22T19:15:04.181Z,23.50
2022-12-22T19:20:00.541Z,20.80
2022-12-22T19:25:00.521Z,20.00
2022-12-22T19:30:04.005Z,20.20
2022-12-22T19:35:00.559Z,18.60
2022-12-22T19:40:00.642Z,24.00
2022-12-22T19:45:06.859Z,23.10
2022-12-22T19:50:00.591Z,24.90
2022-12-22T19:55:00.509Z,19.80
2022-12-22T20:00:02.737Z,22.20
2022-12-22T20:05:00.516Z,22.90
2022-12-22T20:10:00.644Z,21.90
2022-12-22T20:15:11.495Z,18.70
2022-12-22T20:20:00.629Z,25.30
2022-12-22T20:25:00.677Z,21.50
2022-12-22T20:30:00.710Z,17.90
2022-12-22T20:35:00.540Z,19.10
2022-12-22T20:40:00.632Z,21.50
2022-12-22T20:45:02.920Z,21.70
2022-12-22T20:50:00.658Z,25.20
2022-12-22T20:55:00.646Z,24.50
2022-12-22T21:00:01.317Z,24.30
2022-12-22T21:05:00.537Z,23.70
2022-12-22T21:10:00.655Z,22.10
2022-12-22T21:15:00.524Z,30.60
2022-12-22T21:20:00.533Z,22.90
2022-12-22T21:25:00.519Z,23.20
2022-12-22T21:30:00.602Z,28.20
2022-12-22T21:35:06.075Z,21.10
2022-12-22T21:40:00.843Z,30.50
2022-12-22T21:45:00.564Z,31.90
2022-12-22T21:50:00.548Z,28.70
2022-12-22T21:55:00.512Z,29.20
2022-12-22T22:00:01.205Z,26.50
2022-12-22T22:05:00.604Z,23.70
2022-12-22T22:10:00.635Z,28.80
2022-12-22T22:15:00.535Z,24.80
2022-12-22T22:20:00.740Z,21.50
2022-12-22T22:25:00.550Z,25.90
2022-12-22T22:30:00.766Z,26.10
2022-12-22T22:35:00.537Z,25.00
2022-12-22T22:40:00.952Z,23.00
2022-12-22T22:45:01.004Z,25.80
2022-12-22T22:50:00.589Z,23.70
2022-12-22T22:55:00.756Z,30.10
2022-12-22T23:00:01.082Z,20.30
2022-12-22T23:05:01.456Z,22.50
2022-12-22T23:10:01.044Z,21.90
2022-12-22T23:15:00.652Z,23.60
2022-12-22T23:20:00.577Z,18.20
2022-12-22T23:25:00.600Z,19.30
2022-12-22T23:30:00.596Z,21.20
2022-12-22T23:35:00.549Z,20.80
2022-12-22T23:40:25.240Z,23.70
2022-12-22T23:45:00.537Z,27.20
2022-12-22T23:50:00.674Z,23.90
2022-12-22T23:55:00.522Z,22.30
